Time;durP1;ratioP1;P1;durP2;ratioP2;P2;SDS_P1;SDS_P2;PMS_P1;PMS_P2;Temp;Humidity;BMP_temperature;BMP_pressure;BME280_temperature;BME280_humidity;BME280_pressure;Samples;Min_cycle;Max_cycle;Signal;HPM_P1;HPM_P2
2021/12/07 00:01:24;;;;;;;14.48;7.28;;;;;;;0.36;95.80;100399.56;5020699;28;20541;-75
2021/12/07 00:03:50;;;;;;;11.68;6.70;;;;;;;0.37;95.58;100404.84;5017632;28;20113;-77
2021/12/07 00:06:15;;;;;;;14.57;7.95;;;;;;;0.40;95.64;100404.75;5016229;28;20113;-75
2021/12/07 00:08:41;;;;;;;19.02;8.13;;;;;;;0.41;95.64;100408.28;5025610;28;20025;-77
2021/12/07 00:11:08;;;;;;;17.73;7.13;;;;;;;0.40;95.48;100409.22;5023211;28;20049;-78
2021/12/07 00:13:37;;;;;;;17.67;8.90;;;;;;;0.42;95.91;100412.69;5017386;28;20025;-72
2021/12/07 00:16:11;;;;;;;17.77;9.27;;;;;;;0.43;95.63;100414.47;5027215;28;20043;-75
2021/12/07 00:18:38;;;;;;;17.20;9.02;;;;;;;0.43;95.93;100411.78;5020575;28;20613;-77
2021/12/07 00:21:04;;;;;;;18.60;9.38;;;;;;;0.45;95.95;100415.28;5022194;28;20040;-75
2021/12/07 00:23:30;;;;;;;18.15;9.00;;;;;;;0.45;95.96;100418.81;5027457;28;20030;-77
2021/12/07 00:25:55;;;;;;;16.95;9.18;;;;;;;0.49;96.21;100419.59;5027684;28;20079;-77
2021/12/07 00:28:23;;;;;;;19.80;10.43;;;;;;;0.49;96.35;100428.47;5026997;28;20018;-73
2021/12/07 00:30:49;;;;;;;22.27;10.90;;;;;;;0.52;96.53;100424.81;5029777;28;20036;-77
2021/12/07 00:33:30;;;;;;;20.25;11.98;;;;;;;0.54;96.32;100428.31;5027352;28;20101;-72
2021/12/07 00:35:55;;;;;;;21.48;11.18;;;;;;;0.57;96.37;100424.66;5028845;28;20029;-77
2021/12/07 00:38:24;;;;;;;19.33;10.95;;;;;;;0.60;96.48;100436.09;5012953;28;20394;-77
2021/12/07 00:40:52;;;;;;;24.52;11.82;;;;;;;0.60;96.74;100435.22;5014760;28;20497;-78
2021/12/07 00:43:18;;;;;;;20.20;10.70;;;;;;;0.65;96.49;100442.16;5022563;28;20374;-73
2021/12/07 00:45:45;;;;;;;24.80;11.00;;;;;;;0.69;96.96;100446.44;5019623;28;20030;-77
2021/12/07 00:48:14;;;;;;;25.40;12.48;;;;;;;0.76;97.14;100452.47;5020838;28;20022;-75
2021/12/07 00:50:42;;;;;;;25.58;11.23;;;;;;;0.81;97.46;100460.31;5020332;28;20493;-75
2021/12/07 00:53:09;;;;;;;29.58;12.68;;;;;;;0.88;97.18;100453.78;5027238;28;20096;-77
2021/12/07 00:55:43;;;;;;;23.65;11.82;;;;;;;0.91;97.25;100461.69;5028020;28;20468;-74
2021/12/07 00:58:17;;;;;;;27.95;13.10;;;;;;;0.95;97.23;100466.88;5023984;28;20645;-78
2021/12/07 01:00:44;;;;;;;22.90;10.55;;;;;;;0.99;97.26;100476.53;5013963;28;20112;-75
2021/12/07 01:03:10;;;;;;;39.67;12.90;;;;;;;1.00;97.13;100472.91;5021882;28;20029;-74
2021/12/07 01:05:38;;;;;;;28.10;13.30;;;;;;;1.07;97.29;100475.34;5019377;28;20080;-75
2021/12/07 01:26:59;;;;;;;23.73;11.45;;;;;;;1.58;97.82;100520.63;5020253;28;20128;-73
2021/12/07 01:29:26;;;;;;;28.70;12.25;;;;;;;1.61;97.51;100528.56;5016292;28;20133;-74
2021/12/07 01:45:23;;;;;;;31.73;9.90;;;;;;;1.76;97.41;100541.31;5027584;28;20048;-76
2021/12/07 01:53:14;;;;;;;23.50;10.00;;;;;;;1.88;97.61;100556.06;5007002;28;20025;-76
2021/12/07 02:00:57;;;;;;;28.23;9.75;;;;;;;1.94;97.45;100563.84;5025315;28;20068;-77
2021/12/07 02:03:23;;;;;;;25.77;9.30;;;;;;;1.93;97.27;100564.78;5027129;28;20030;-76
2021/12/07 02:05:48;;;;;;;21.45;9.45;;;;;;;1.93;97.13;100561.22;5019855;28;20496;-76
2021/12/07 02:08:14;;;;;;;18.25;7.18;;;;;;;1.95;97.22;100567.38;5026748;28;20060;-75
2021/12/07 02:10:40;;;;;;;19.13;7.95;;;;;;;1.99;97.38;100575.25;5028703;28;20017;-76
2021/12/07 02:13:19;;;;;;;18.42;7.38;;;;;;;2.03;97.27;100581.38;5031009;28;20029;-73
2021/12/07 02:15:45;;;;;;;23.20;9.32;;;;;;;2.01;97.23;100576.06;5030369;28;20022;-77
2021/12/07 02:18:10;;;;;;;24.42;7.18;;;;;;;2.05;97.16;100584.84;5026505;28;20535;-75
2021/12/07 02:20:35;;;;;;;20.23;7.28;;;;;;;2.08;97.23;100595.47;5025879;28;20021;-77
2021/12/07 02:23:01;;;;;;;18.83;6.88;;;;;;;2.11;97.20;100595.34;5030306;28;20537;-74
2021/12/07 02:25:28;;;;;;;19.13;5.97;;;;;;;2.15;97.41;100602.31;5027342;28;20108;-73
2021/12/07 02:27:54;;;;;;;25.60;6.32;;;;;;;2.17;97.23;100603.13;5029303;28;20444;-79
2021/12/07 02:30:22;;;;;;;16.08;5.18;;;;;;;2.17;97.05;100599.56;5030742;28;20033;-73
2021/12/07 02:32:51;;;;;;;15.35;4.70;;;;;;;2.17;96.87;100603.13;5030034;28;20025;-75
2021/12/07 02:35:22;;;;;;;14.40;4.72;;;;;;;2.19;96.90;100603.94;5027622;28;20025;-76
2021/12/07 02:37:48;;;;;;;16.23;4.50;;;;;;;2.19;97.00;100612.00;5030373;28;20385;-73
2021/12/07 02:40:13;;;;;;;21.40;4.35;;;;;;;2.21;96.84;100612.78;5029928;28;20047;-76
2021/12/07 02:42:39;;;;;;;16.23;4.18;;;;;;;2.22;96.97;100619.03;5028899;28;20435;-76
2021/12/07 02:45:07;;;;;;;25.70;4.43;;;;;;;2.23;96.71;100621.66;5030407;28;20393;-74
2021/12/07 02:47:36;;;;;;;14.52;3.70;;;;;;;2.24;96.60;100633.28;5026276;28;20132;-75
2021/12/07 02:50:04;;;;;;;21.88;4.30;;;;;;;2.21;96.34;100631.59;5022721;28;20029;-73
2021/12/07 02:52:29;;;;;;;15.25;3.13;;;;;;;2.22;96.44;100636.00;5027630;28;20036;-76
2021/12/07 02:54:55;;;;;;;20.23;3.58;;;;;;;2.20;96.58;100643.25;5030044;28;20029;-77
2021/12/07 02:57:21;;;;;;;9.20;3.60;;;;;;;2.20;96.67;100645.94;5028310;28;20044;-76
2021/12/07 02:59:56;;;;;;;20.40;5.03;;;;;;;2.19;96.54;100648.66;5015884;28;20040;-76
2021/12/07 03:02:22;;;;;;;21.20;4.43;;;;;;;2.17;96.72;100646.06;5019748;28;20033;-76
2021/12/07 03:05:07;;;;;;;18.25;3.83;;;;;;;2.18;96.53;100649.63;5018338;28;20112;-77
2021/12/07 03:08:12;;;;;;;15.02;3.33;;;;;;;2.15;96.50;100656.00;5024410;28;20065;-73
2021/12/07 03:26:58;;;;;;;16.10;3.25;;;;;;;2.08;96.34;100669.72;5025857;28;20418;-76
2021/12/07 03:29:23;;;;;;;16.23;3.15;;;;;;;2.07;96.61;100676.88;5026578;28;20029;-75
2021/12/07 03:31:48;;;;;;;11.18;2.67;;;;;;;2.03;96.51;100670.75;5018692;28;20026;-77
2021/12/07 03:34:14;;;;;;;17.50;3.08;;;;;;;2.04;96.29;100679.69;5021207;28;20026;-76
2021/12/07 03:36:39;;;;;;;15.30;3.55;;;;;;;2.00;96.35;100681.59;5019538;28;20028;-74
2021/12/07 03:39:05;;;;;;;15.55;2.53;;;;;;;1.98;96.74;100691.53;5017024;28;20076;-77
2021/12/07 03:41:31;;;;;;;17.85;3.63;;;;;;;1.97;96.57;100695.16;5026813;28;20459;-73
2021/12/07 03:43:56;;;;;;;13.60;2.75;;;;;;;1.96;96.50;100705.97;5029371;28;20101;-76
2021/12/07 03:46:22;;;;;;;14.95;2.95;;;;;;;1.93;96.73;100706.94;5028807;28;20493;-77
2021/12/07 03:48:47;;;;;;;12.30;3.03;;;;;;;1.94;96.52;100716.72;5017434;28;20034;-76
2021/12/07 03:51:14;;;;;;;16.27;3.42;;;;;;;1.90;96.52;100723.16;5030006;28;20072;-77
2021/12/07 03:53:39;;;;;;;9.05;3.13;;;;;;;1.83;96.33;100715.41;5013818;28;20037;-73
2021/12/07 03:56:06;;;;;;;10.98;2.67;;;;;;;1.86;96.67;100710.78;5025437;28;20052;-73
2021/12/07 03:58:32;;;;;;;15.93;3.00;;;;;;;1.87;96.58;100725.97;5011085;28;20110;-76
2021/12/07 04:00:58;;;;;;;15.68;3.55;;;;;;;1.88;96.68;100735.75;5026289;28;20025;-74
2021/12/07 04:03:24;;;;;;;14.13;2.72;;;;;;;1.86;96.39;100731.38;5023465;28;20022;-75
2021/12/07 04:05:54;;;;;;;19.30;3.65;;;;;;;1.83;96.44;100723.47;5023713;28;20060;-77
2021/12/07 04:08:22;;;;;;;11.18;2.72;;;;;;;1.80;96.80;100713.72;5026586;28;20440;-76
2021/12/07 04:10:48;;;;;;;10.95;3.50;;;;;;;1.81;96.80;100717.28;5020177;28;20025;-73
2021/12/07 04:13:13;;;;;;;17.55;2.47;;;;;;;1.79;96.68;100722.69;5020176;28;20033;-77
2021/12/07 04:15:39;;;;;;;15.13;2.85;;;;;;;1.79;96.63;100734.31;5029154;28;20028;-76
2021/12/07 04:18:05;;;;;;;9.07;2.40;;;;;;;1.78;96.32;100731.69;5025275;28;20034;-77
2021/12/07 04:20:31;;;;;;;10.70;2.60;;;;;;;1.77;96.49;100737.97;5027387;28;20025;-77
2021/12/07 04:22:56;;;;;;;13.30;3.25;;;;;;;1.75;96.70;100724.63;5025488;28;20036;-77
2021/12/07 04:25:25;;;;;;;20.05;2.72;;;;;;;1.72;96.61;100726.53;5028730;28;20025;-78
2021/12/07 04:27:53;;;;;;;16.23;3.20;;;;;;;1.70;96.52;100737.34;5028561;28;20026;-72
2021/12/07 04:30:22;;;;;;;10.48;2.70;;;;;;;1.70;96.36;100744.50;5028842;28;20468;-77
2021/12/07 04:32:47;;;;;;;6.93;2.50;;;;;;;1.67;96.55;100734.75;5022664;28;20026;-76
2021/12/07 04:35:14;;;;;;;16.40;2.75;;;;;;;1.66;96.50;100732.13;5023470;28;20167;-77
2021/12/07 04:37:40;;;;;;;8.82;2.65;;;;;;;1.64;96.79;100729.53;5023368;28;20771;-77
2021/12/07 04:40:08;;;;;;;11.63;3.00;;;;;;;1.64;96.37;100742.06;5019567;28;20041;-77
2021/12/07 04:42:34;;;;;;;14.48;2.80;;;;;;;1.64;96.57;100763.50;5024011;28;20619;-78
2021/12/07 04:45:03;;;;;;;12.02;3.17;;;;;;;1.60;96.72;100754.69;5023189;28;20029;-77
2021/12/07 04:57:36;;;;;;;11.00;3.60;;;;;;;1.59;96.50;100755.63;5014896;28;20048;-73
2021/12/07 04:58:50;;;;;;;10.98;2.53;;;;;;;1.61;96.70;100761.81;5016951;28;20561;-77
2021/12/07 05:01:15;;;;;;;11.77;2.97;;;;;;;1.60;96.98;100746.66;5018020;28;20025;-77
2021/12/07 05:03:42;;;;;;;20.25;3.25;;;;;;;1.63;96.76;100769.78;5019669;28;20026;-78
2021/12/07 05:06:09;;;;;;;12.57;2.50;;;;;;;1.60;96.83;100769.91;5023596;28;20033;-77
2021/12/07 05:08:41;;;;;;;10.55;2.67;;;;;;;1.63;96.79;100773.38;5020932;28;20548;-73
2021/12/07 05:13:49;;;;;;;13.73;2.67;;;;;;;1.64;96.86;100783.16;5026801;28;20460;-76
2021/12/07 05:16:32;;;;;;;16.58;2.75;;;;;;;1.63;96.51;100786.78;5013753;28;20025;-76
2021/12/07 05:24:25;;;;;;;12.10;2.42;;;;;;;1.62;96.77;100786.81;5017394;28;20455;-78
2021/12/07 05:37:51;;;;;;;15.50;2.92;;;;;;;1.47;96.69;100805.19;5024777;28;20056;-77
2021/12/07 05:40:20;;;;;;;13.13;3.05;;;;;;;1.44;96.68;100813.34;5023985;28;20089;-73
2021/12/07 05:42:46;;;;;;;11.60;2.58;;;;;;;1.43;97.06;100830.34;5017343;28;20056;-74
2021/12/07 05:45:15;;;;;;;15.00;3.05;;;;;;;1.43;97.11;100835.72;5019064;28;20033;-74
2021/12/07 05:47:42;;;;;;;13.93;2.50;;;;;;;1.41;96.69;100847.44;5026948;28;20029;-77
2021/12/07 05:50:10;;;;;;;13.57;2.38;;;;;;;1.36;96.53;100850.28;5009443;28;20124;-75
2021/12/07 05:52:35;;;;;;;13.15;2.97;;;;;;;1.30;96.84;100849.59;5022511;28;20026;-74
2021/12/07 05:55:01;;;;;;;14.80;2.75;;;;;;;1.31;97.00;100852.25;5021397;28;20112;-79
2021/12/07 05:57:26;;;;;;;9.60;2.88;;;;;;;1.27;97.03;100859.50;5026336;28;20541;-76
2021/12/07 05:59:52;;;;;;;14.73;3.15;;;;;;;1.24;96.72;100862.28;5027211;28;20487;-76
2021/12/07 06:02:17;;;;;;;12.52;2.65;;;;;;;1.19;96.62;100866.91;5024138;28;20037;-75
2021/12/07 06:04:42;;;;;;;5.20;3.05;;;;;;;1.15;96.49;100877.78;5010510;28;20022;-73
2021/12/07 06:07:10;;;;;;;12.13;2.83;;;;;;;1.08;96.48;100873.56;5027525;28;20080;-77
2021/12/07 06:09:36;;;;;;;14.77;3.33;;;;;;;0.99;96.41;100864.03;5025988;28;20116;-76
2021/12/07 06:12:02;;;;;;;13.45;3.35;;;;;;;0.95;96.67;100871.28;5011990;28;20022;-76
2021/12/07 06:14:32;;;;;;;6.35;2.83;;;;;;;0.85;96.65;100867.16;5023676;28;20110;-76
2021/12/07 06:16:58;;;;;;;14.23;3.03;;;;;;;0.82;96.44;100867.25;5010480;28;20393;-77
2021/12/07 06:19:23;;;;;;;12.70;3.38;;;;;;;0.79;96.64;100869.13;5011958;28;20033;-78
2021/12/07 06:21:49;;;;;;;15.45;3.75;;;;;;;0.74;96.35;100861.25;5013296;28;20025;-78
2021/12/07 06:24:14;;;;;;;13.95;4.00;;;;;;;0.65;96.35;100858.84;5016512;28;20021;-77
2021/12/07 06:26:39;;;;;;;15.55;4.15;;;;;;;0.61;96.50;100859.91;5022480;28;20168;-79
2021/12/07 06:29:05;;;;;;;14.82;4.72;;;;;;;0.57;96.63;100864.47;5006776;28;20049;-78
2021/12/07 06:31:30;;;;;;;15.57;4.43;;;;;;;0.53;96.45;100878.88;5024386;28;20029;-78
2021/12/07 06:33:56;;;;;;;11.93;4.70;;;;;;;0.48;96.48;100883.50;5007314;28;20119;-75
2021/12/07 06:36:21;;;;;;;12.63;5.03;;;;;;;0.45;96.32;100880.91;5019115;28;20025;-74
2021/12/07 06:38:47;;;;;;;12.13;4.90;;;;;;;0.40;96.33;100878.34;5010704;28;20096;-76
2021/12/07 06:41:13;;;;;;;18.05;5.30;;;;;;;0.35;96.73;100872.28;5013500;28;20034;-77
2021/12/07 06:43:38;;;;;;;14.52;5.13;;;;;;;0.34;96.63;100877.69;5018457;28;20083;-77
2021/12/07 06:46:04;;;;;;;19.17;4.90;;;;;;;0.28;96.59;100872.50;5020324;28;20550;-74
2021/12/07 06:48:29;;;;;;;18.52;5.20;;;;;;;0.25;96.61;100878.81;5013038;28;20041;-77
2021/12/07 06:50:55;;;;;;;24.70;5.95;;;;;;;0.25;97.04;100873.47;5013178;28;20038;-73
2021/12/07 06:53:21;;;;;;;21.75;6.00;;;;;;;0.26;97.02;100872.53;5016210;28;20029;-73
2021/12/07 06:55:46;;;;;;;14.38;4.93;;;;;;;0.21;96.96;100866.47;5041126;28;20137;-78
2021/12/07 06:58:11;;;;;;;13.98;5.13;;;;;;;0.19;96.77;100876.34;5024562;28;20022;-77
2021/12/07 07:00:37;;;;;;;18.13;6.57;;;;;;;0.19;97.03;100890.59;5030494;28;20030;-77
2021/12/07 07:03:03;;;;;;;20.27;5.65;;;;;;;0.18;97.15;100887.94;5028415;28;20026;-78
2021/12/07 07:05:30;;;;;;;19.58;7.10;;;;;;;0.21;97.80;100888.72;5003474;28;20092;-77
2021/12/07 07:07:57;;;;;;;23.33;6.97;;;;;;;0.22;97.49;100890.47;5018799;28;20029;-73
2021/12/07 07:10:22;;;;;;;23.13;6.78;;;;;;;0.28;97.91;100892.13;5035622;28;20025;-76
2021/12/07 07:12:48;;;;;;;27.65;7.13;;;;;;;0.30;98.04;100884.91;5021623;28;20021;-76
2021/12/07 07:15:14;;;;;;;17.65;7.00;;;;;;;0.34;98.01;100885.72;5024552;28;20430;-77
2021/12/07 07:17:39;;;;;;;32.05;8.23;;;;;;;0.32;97.92;100880.38;5020939;28;20036;-77
2021/12/07 07:20:08;;;;;;;30.10;7.05;;;;;;;0.38;97.84;100896.28;5025422;28;20116;-77
2021/12/07 07:22:34;;;;;;;19.23;6.65;;;;;;;0.35;97.78;100888.31;5019088;28;20072;-76
2021/12/07 07:24:59;;;;;;;22.35;7.18;;;;;;;0.31;97.59;100883.13;5027209;28;20029;-74
2021/12/07 07:27:25;;;;;;;31.95;7.13;;;;;;;0.33;97.99;100886.63;5027881;28;20116;-77
2021/12/07 07:29:50;;;;;;;23.92;6.05;;;;;;;0.35;98.06;100893.69;5026065;28;20032;-76
2021/12/07 07:32:15;;;;;;;27.67;7.80;;;;;;;0.35;98.10;100899.03;5020476;28;20464;-77
2021/12/07 07:34:41;;;;;;;20.30;6.03;;;;;;;0.37;97.82;100910.56;5020261;28;20060;-77
2021/12/07 07:37:06;;;;;;;32.22;7.55;;;;;;;0.37;98.00;100909.69;5027443;28;20436;-73
2021/12/07 07:39:32;;;;;;;28.08;7.00;;;;;;;0.40;98.11;100909.59;5022483;28;20083;-76
2021/12/07 07:41:58;;;;;;;14.88;5.85;;;;;;;0.42;98.03;100913.09;5024713;28;20054;-74
2021/12/07 07:44:24;;;;;;;23.95;7.38;;;;;;;0.43;98.07;100910.38;5028719;28;20044;-78
2021/12/07 07:46:49;;;;;;;28.92;7.38;;;;;;;0.45;98.09;100902.31;5029683;28;20448;-77
2021/12/07 07:49:14;;;;;;;19.58;7.00;;;;;;;0.47;98.05;100901.34;5021047;28;22167;-75
2021/12/07 07:51:39;;;;;;;23.35;7.00;;;;;;;0.54;98.01;100901.16;5028672;28;20391;-78
2021/12/07 07:54:08;;;;;;;26.35;7.90;;;;;;;0.54;98.01;100896.69;5027789;28;20025;-74
2021/12/07 07:56:36;;;;;;;21.08;6.97;;;;;;;0.56;98.04;100893.94;5025019;28;20041;-76
2021/12/07 07:59:02;;;;;;;20.83;7.85;;;;;;;0.61;98.29;100898.25;5025601;28;20022;-74
2021/12/07 08:01:31;;;;;;;26.55;7.55;;;;;;;0.65;98.50;100886.53;5026504;28;20404;-77
2021/12/07 08:04:01;;;;;;;26.67;8.00;;;;;;;0.71;98.06;100882.78;5021589;28;20048;-77
2021/12/07 08:06:27;;;;;;;27.08;6.80;;;;;;;0.70;97.86;100887.28;5028617;28;20341;-76
2021/12/07 08:08:52;;;;;;;27.52;7.45;;;;;;;0.68;97.89;100886.41;5027602;28;20389;-77
2021/12/07 08:11:18;;;;;;;17.58;6.90;;;;;;;0.70;97.76;100897.97;5023932;28;20033;-73
2021/12/07 08:13:43;;;;;;;22.27;6.50;;;;;;;0.69;97.62;100898.00;5026541;28;20021;-80
2021/12/07 08:16:15;;;;;;;26.05;6.85;;;;;;;0.73;97.80;100899.66;5012420;28;20394;-74
2021/12/07 08:18:43;;;;;;;29.67;7.10;;;;;;;0.72;97.83;100895.25;5019508;28;20709;-73
2021/12/07 08:21:08;;;;;;;25.45;6.93;;;;;;;0.76;97.83;100911.16;5022391;28;20860;-76
2021/12/07 08:23:35;;;;;;;23.27;7.70;;;;;;;0.82;97.91;100911.91;5016288;28;20052;-79
2021/12/07 08:26:01;;;;;;;24.50;7.47;;;;;;;0.86;98.06;100922.47;5025790;28;20063;-77
2021/12/07 08:28:26;;;;;;;23.80;7.95;;;;;;;0.90;97.77;100926.81;5020585;28;20041;-74
2021/12/07 08:30:51;;;;;;;22.23;6.55;;;;;;;0.95;97.83;100929.34;5015256;28;20029;-79
2021/12/07 08:33:17;;;;;;;17.27;6.72;;;;;;;0.99;98.04;100931.00;5015694;28;20712;-77
2021/12/07 08:35:43;;;;;;;26.98;7.45;;;;;;;1.01;97.82;100921.09;5022873;28;20075;-76
2021/12/07 08:38:08;;;;;;;18.80;6.78;;;;;;;1.04;97.73;100915.66;5016565;28;20124;-78
2021/12/07 08:40:34;;;;;;;24.92;6.03;;;;;;;1.07;97.75;100926.25;5020818;28;20045;-78
2021/12/07 08:43:02;;;;;;;19.98;6.43;;;;;;;1.10;97.55;100933.31;5020506;28;20725;-74
2021/12/07 08:45:27;;;;;;;17.25;6.05;;;;;;;1.12;97.55;100926.09;5026020;28;20038;-78
2021/12/07 08:47:54;;;;;;;23.48;8.10;;;;;;;1.12;97.29;100926.09;5028784;28;20025;-74
2021/12/07 08:50:26;;;;;;;25.33;6.43;;;;;;;1.16;97.30;100935.78;5023687;28;20033;-77
2021/12/07 08:52:54;;;;;;;19.43;5.70;;;;;;;1.18;97.36;100924.13;5026501;28;20021;-76
2021/12/07 09:00:52;;;;;;;21.30;5.40;;;;;;;1.30;97.16;100905.88;5024078;28;20053;-75
2021/12/07 09:03:17;;;;;;;13.88;4.57;;;;;;;1.33;96.96;100908.47;5036170;28;20022;-75
2021/12/07 09:05:42;;;;;;;21.20;5.07;;;;;;;1.37;97.17;100902.94;5035952;28;20034;-78
2021/12/07 09:08:08;;;;;;;17.40;5.05;;;;;;;1.40;96.84;100897.50;5026546;28;20113;-79
2021/12/07 09:10:33;;;;;;;17.13;5.07;;;;;;;1.46;96.97;100891.03;5022821;28;20066;-76
2021/12/07 09:12:59;;;;;;;12.35;4.88;;;;;;;1.48;96.91;100891.84;5021908;28;20120;-78
2021/12/07 09:15:24;;;;;;;12.98;4.63;;;;;;;1.52;96.97;100889.00;5023525;28;20020;-77
2021/12/07 09:17:49;;;;;;;15.23;5.20;;;;;;;1.60;96.72;100887.88;5027192;28;20029;-79
2021/12/07 09:20:16;;;;;;;16.92;4.35;;;;;;;1.64;96.88;100885.03;5024095;28;20397;-79
2021/12/07 09:22:44;;;;;;;21.73;4.78;;;;;;;1.69;96.90;100895.59;5025756;28;20110;-74
2021/12/07 09:25:09;;;;;;;14.45;4.93;;;;;;;1.71;96.31;100902.66;5025387;28;20034;-74
2021/12/07 09:27:35;;;;;;;15.18;4.70;;;;;;;1.73;96.46;100899.94;5025206;28;20043;-76
2021/12/07 09:30:00;;;;;;;19.35;5.97;;;;;;;1.77;96.31;100894.41;5025668;28;20033;-76
2021/12/07 09:32:26;;;;;;;11.82;4.47;;;;;;;1.77;96.24;100886.38;5016042;28;20032;-76
2021/12/07 09:34:51;;;;;;;21.10;5.75;;;;;;;1.83;96.29;100895.13;5016928;28;20029;-74
2021/12/07 09:37:17;;;;;;;10.60;4.40;;;;;;;1.86;96.01;100892.31;5024158;28;20101;-78
2021/12/07 09:39:42;;;;;;;15.05;4.38;;;;;;;1.89;96.00;100889.53;5023954;28;20053;-78
2021/12/07 09:42:08;;;;;;;17.48;4.32;;;;;;;1.92;96.09;100895.66;5022798;28;20036;-76
2021/12/07 09:44:33;;;;;;;12.63;5.30;;;;;;;1.93;95.93;100886.69;5026548;28;20025;-77
2021/12/07 09:46:58;;;;;;;15.07;4.72;;;;;;;1.96;96.16;100886.56;5019336;28;20040;-77
2021/12/07 09:49:24;;;;;;;10.48;5.00;;;;;;;2.02;96.06;100894.41;5023286;28;20113;-78
2021/12/07 09:51:50;;;;;;;20.35;6.00;;;;;;;2.06;95.80;100888.94;5015585;28;20708;-76
2021/12/07 09:54:15;;;;;;;22.65;5.47;;;;;;;2.11;96.04;100901.25;5019098;28;20034;-74
2021/12/07 09:56:41;;;;;;;13.80;4.60;;;;;;;2.15;95.64;100899.31;5014224;28;20025;-74
2021/12/07 09:59:08;;;;;;;13.82;4.00;;;;;;;2.19;95.40;100891.09;5020930;28;20421;-74
2021/12/07 10:01:35;;;;;;;12.20;4.45;;;;;;;2.24;95.85;100893.63;5015895;28;20071;-79
2021/12/07 10:04:00;;;;;;;18.00;5.07;;;;;;;2.25;95.82;100882.81;5029434;28;20030;-77
2021/12/07 10:06:26;;;;;;;16.42;4.68;;;;;;;2.28;95.47;100881.81;5025743;28;20025;-80
2021/12/07 10:08:51;;;;;;;17.80;4.88;;;;;;;2.35;95.29;100888.72;5022467;28;20026;-76
2021/12/07 10:11:17;;;;;;;13.85;4.45;;;;;;;2.37;95.13;100892.19;5027863;28;20030;-74
2021/12/07 10:13:45;;;;;;;12.95;5.00;;;;;;;2.42;95.54;100881.28;5026477;28;20108;-77
2021/12/07 10:16:13;;;;;;;14.43;4.20;;;;;;;2.46;95.41;100881.09;5019828;28;20096;-76
2021/12/07 10:18:41;;;;;;;11.02;4.53;;;;;;;2.51;96.17;100870.19;5018761;28;20061;-79
2021/12/07 10:21:17;;;;;;;16.08;4.65;;;;;;;2.60;95.55;100868.97;5013765;28;20510;-79
2021/12/07 10:23:49;;;;;;;13.15;4.60;;;;;;;2.69;95.30;100866.78;5022233;28;20026;-74
2021/12/07 10:26:21;;;;;;;14.70;4.93;;;;;;;2.71;94.98;100864.94;5030971;28;20513;-74
2021/12/07 10:28:50;;;;;;;24.33;5.82;;;;;;;2.80;94.99;100861.00;5015098;28;20133;-79
2021/12/07 10:31:37;;;;;;;14.13;5.05;;;;;;;2.88;94.61;100858.00;5016910;28;20034;-75
2021/12/07 10:34:13;;;;;;;14.40;4.15;;;;;;;2.95;94.32;100863.06;5026491;28;20025;-77
2021/12/07 10:36:47;;;;;;;8.40;4.55;;;;;;;3.03;94.74;100860.94;5020793;28;20041;-74
2021/12/07 10:39:20;;;;;;;21.60;5.68;;;;;;;3.14;94.34;100854.25;5023802;28;20052;-77
2021/12/07 10:41:51;;;;;;;;;;;;;;;3.21;94.79;100853.91;5017362;28;20112;-80
2021/12/07 10:44:23;;;;;;;10.90;3.90;;;;;;;3.33;94.48;100839.09;5030568;28;19916;-76
2021/12/07 10:46:58;;;;;;;12.63;5.03;;;;;;;3.44;94.74;100836.78;5030752;28;20029;-75
2021/12/07 10:49:36;;;;;;;11.10;4.80;;;;;;;3.51;94.16;100832.91;5017760;28;20021;-77
2021/12/07 10:52:09;;;;;;;20.08;5.20;;;;;;;3.58;93.42;100828.13;5029677;28;20052;-75
2021/12/07 10:54:39;;;;;;;16.98;4.78;;;;;;;3.68;94.43;100821.41;5029831;28;20057;-80
2021/12/07 10:57:06;;;;;;;26.83;5.40;;;;;;;3.74;93.74;100818.44;5022462;28;20087;-77
2021/12/07 10:59:33;;;;;;;21.85;4.10;;;;;;;3.83;92.81;100825.25;5029623;28;20022;-77
2021/12/07 11:02:09;;;;;;;19.08;4.60;;;;;;;3.94;93.55;100811.28;5030479;28;20048;-76
2021/12/07 11:04:34;;;;;;;13.70;3.90;;;;;;;3.95;91.93;100799.56;5027261;28;20111;-79
2021/12/07 11:07:12;;;;;;;12.38;4.25;;;;;;;4.01;93.16;100793.91;5030260;28;20109;-77
2021/12/07 11:09:42;;;;;;;18.65;4.75;;;;;;;4.06;91.26;100783.81;5022393;28;20053;-79
2021/12/07 11:12:10;;;;;;;12.63;4.47;;;;;;;4.13;92.04;100781.72;5027692;28;20035;-74
2021/12/07 11:14:56;;;;;;;13.02;4.15;;;;;;;4.20;92.37;100783.19;5028447;28;20021;-79
2021/12/07 11:17:34;;;;;;;10.25;4.13;;;;;;;4.26;91.54;100775.69;5028753;28;20152;-77
2021/12/07 11:20:01;;;;;;;14.93;4.20;;;;;;;4.32;89.68;100774.50;5020403;28;20037;-80
2021/12/07 11:22:31;;;;;;;12.98;4.68;;;;;;;4.38;89.43;100776.03;5027318;28;20408;-77
2021/12/07 11:25:01;;;;;;;11.00;4.32;;;;;;;4.44;90.68;100768.53;5029614;28;20430;-75
2021/12/07 11:30:27;;;;;;;13.55;4.22;;;;;;;4.52;89.92;100754.69;5017765;28;20168;-75
2021/12/07 11:32:56;;;;;;;20.38;4.80;;;;;;;4.61;90.39;100755.09;5018979;28;20045;-78
2021/12/07 11:35:32;;;;;;;14.23;4.82;;;;;;;4.67;89.31;100761.16;5025500;28;20075;-77
2021/12/07 11:38:02;;;;;;;16.20;5.20;;;;;;;4.70;88.94;100761.00;5027573;28;20474;-75
2021/12/07 11:40:30;;;;;;;10.32;4.30;;;;;;;4.72;88.70;100753.72;5025598;28;20060;-77
2021/12/07 11:42:56;;;;;;;19.25;4.30;;;;;;;4.74;86.38;100754.50;5025901;28;20032;-77
2021/12/07 11:45:27;;;;;;;18.20;5.05;;;;;;;4.78;88.69;100759.66;5028999;28;20030;-75
2021/12/07 11:47:56;;;;;;;12.82;5.15;;;;;;;4.80;87.06;100746.09;5028858;28;20029;-76
2021/12/07 11:50:22;;;;;;;22.40;5.40;;;;;;;4.80;87.24;100755.09;5022355;28;20049;-77
2021/12/07 11:52:50;;;;;;;11.68;5.20;;;;;;;4.81;87.95;100745.19;5029069;28;20449;-79
2021/12/07 11:55:16;;;;;;;14.88;5.13;;;;;;;4.82;86.10;100746.91;5029713;28;20104;-77
2021/12/07 11:57:42;;;;;;;15.68;4.90;;;;;;;4.79;85.20;100744.34;5023494;28;20152;-77
2021/12/07 12:00:12;;;;;;;13.55;4.75;;;;;;;4.75;85.48;100730.16;5019533;28;20022;-77
2021/12/07 12:02:37;;;;;;;17.10;5.68;;;;;;;4.76;86.44;100731.94;5029192;28;20018;-78
2021/12/07 12:05:04;;;;;;;11.00;4.55;;;;;;;4.79;86.57;100714.72;5021073;28;20034;-77
2021/12/07 12:07:30;;;;;;;17.80;3.97;;;;;;;4.82;85.52;100710.06;5028406;28;20029;-75
2021/12/07 12:09:56;;;;;;;10.70;3.75;;;;;;;4.86;85.55;100710.78;5029509;28;20183;-77
2021/12/07 12:12:49;;;;;;;11.80;4.28;;;;;;;4.84;87.11;100716.22;5028474;28;20024;-75
2021/12/07 12:15:30;;;;;;;10.73;4.22;;;;;;;4.82;86.08;100701.97;5038316;28;20041;-74
2021/12/07 12:18:51;;;;;;;10.63;3.70;;;;;;;4.89;87.40;100701.63;5028719;28;20026;-76
2021/12/07 12:21:29;;;;;;;12.35;3.97;;;;;;;4.89;84.65;100699.81;4983094;28;20409;-77
2021/12/07 12:24:22;;;;;;;13.00;4.10;;;;;;;4.91;86.00;100687.16;5026170;28;20045;-78
2021/12/07 12:26:49;;;;;;;15.95;3.45;;;;;;;4.91;84.08;100686.28;5027686;28;20053;-74
2021/12/07 12:29:17;;;;;;;13.98;3.40;;;;;;;4.89;84.21;100669.28;5027641;28;20096;-77
2021/12/07 12:31:55;;;;;;;11.27;4.07;;;;;;;4.88;85.58;100662.16;5027953;28;20033;-77
2021/12/07 12:34:24;;;;;;;9.98;3.13;;;;;;;4.89;85.42;100662.06;5015733;28;20231;-77
2021/12/07 12:36:55;;;;;;;14.40;3.60;;;;;;;4.90;84.15;100668.38;5028000;28;20032;-78
2021/12/07 12:39:39;;;;;;;7.20;3.35;;;;;;;4.88;85.31;100662.16;5026321;28;20048;-75
2021/12/07 12:42:05;;;;;;;13.45;3.65;;;;;;;4.89;84.83;100664.78;5017938;28;20040;-77
2021/12/07 12:44:35;;;;;;;10.68;3.15;;;;;;;4.89;84.80;100663.91;5011207;28;20030;-76
2021/12/07 12:47:00;;;;;;;12.65;3.13;;;;;;;4.86;84.47;100644.25;5023096;28;20055;-74
2021/12/07 12:49:39;;;;;;;5.13;2.40;;;;;;;4.89;85.61;100636.94;5022796;28;20025;-77
2021/12/07 12:52:06;;;;;;;9.30;3.40;;;;;;;4.88;84.26;100627.13;5027753;28;20021;-76
2021/12/07 12:54:44;;;;;;;10.32;2.45;;;;;;;4.88;84.67;100602.88;5016323;28;20522;-75
2021/12/07 12:57:16;;;;;;;13.02;2.70;;;;;;;4.90;84.27;100595.59;5027813;28;20397;-77
2021/12/07 12:59:43;;;;;;;13.23;3.60;;;;;;;4.92;84.06;100585.59;5021784;28;20105;-77
2021/12/07 13:02:10;;;;;;;9.25;2.38;;;;;;;4.90;82.80;100577.59;5016532;28;20486;-75
2021/12/07 13:04:35;;;;;;;11.50;3.00;;;;;;;4.94;84.67;100575.59;5021754;28;20040;-77
2021/12/07 13:09:35;;;;;;;;;;;;;;;4.95;86.24;100558.47;5023483;28;20041;-77